Terminal Aerodrome Forecast
Issued by NWS Wilmington, OH

Home | Current Version | Previous Version | Text Only | Print | Product List | Glossary On
Versions: 1 2 3 4 5 6 7 8 9 10 11 12 13 14 15 16 17
220
FTUS41 KILN 131128
TAFILN
TAF
KILN 131128Z 1312/1412 32011KT P6SM VCSH SCT025 BKN035
     FM131700 30012KT P6SM VCSH BKN022
     FM132300 VRB03KT P6SM FEW022 SCT250=

USA.gov is the U.S. government's official web portal to all federal, state and local government web resources and services.